createdAt,value
2022-11-14T00:01:12.878Z,100562.63
2022-11-14T00:03:59.422Z,100574.53
2022-11-14T00:06:45.784Z,100579.47
2022-11-14T00:09:32.054Z,100596.06
2022-11-14T00:12:18.308Z,100590.81
2022-11-14T00:15:05.076Z,100588.31
2022-11-14T00:17:54.275Z,100587.72
2022-11-14T00:20:40.344Z,100588.19
2022-11-14T00:23:26.178Z,100592.53
2022-11-14T00:26:12.758Z,100595.50
2022-11-14T00:28:59.027Z,100596.22
2022-11-14T00:31:45.230Z,100588.34
2022-11-14T00:34:34.919Z,100593.72
2022-11-14T00:37:21.349Z,100602.94
2022-11-14T00:40:08.152Z,100598.00
2022-11-14T00:42:54.136Z,100608.03
2022-11-14T00:45:40.213Z,100601.62
2022-11-14T00:48:26.455Z,100609.31
2022-11-14T00:51:15.894Z,100598.38
2022-11-14T00:54:02.077Z,100608.56
2022-11-14T00:56:51.287Z,100603.97
2022-11-14T00:59:37.521Z,100609.25
2022-11-14T01:02:24.202Z,100609.87
2022-11-14T01:05:10.606Z,100612.12
2022-11-14T01:07:59.957Z,100606.25
2022-11-14T01:10:51.085Z,100599.53
2022-11-14T01:13:37.343Z,100613.03
2022-11-14T01:16:23.774Z,100609.72
2022-11-14T01:19:09.904Z,100614.78
2022-11-14T01:22:01.802Z,100621.50
2022-11-14T01:24:52.172Z,100625.00
2022-11-14T01:27:38.614Z,100624.03
2022-11-14T01:30:24.539Z,100618.03
2022-11-14T01:33:11.178Z,100617.94
2022-11-14T01:36:00.348Z,100626.50
2022-11-14T01:38:47.110Z,100625.06
2022-11-14T01:41:33.425Z,100635.19
2022-11-14T01:44:50.128Z,100632.63
2022-11-14T01:47:39.727Z,100642.31
2022-11-14T01:50:28.589Z,100641.31
2022-11-14T01:53:17.873Z,100641.34
2022-11-14T01:56:07.337Z,100642.34
2022-11-14T01:59:07.482Z,100644.06
2022-11-14T02:01:54.745Z,100639.84
2022-11-14T02:04:47.899Z,100654.56
2022-11-14T02:07:37.559Z,100655.38
2022-11-14T02:10:23.977Z,100657.13
2022-11-14T02:13:10.169Z,100667.50
2022-11-14T02:15:56.542Z,100662.47
2022-11-14T02:18:42.793Z,100656.31
2022-11-14T02:21:28.995Z,100665.84
2022-11-14T02:24:15.308Z,100658.28
2022-11-14T02:27:02.392Z,100656.56
2022-11-14T02:29:48.683Z,100671.94
2022-11-14T02:32:57.128Z,100670.31
2022-11-14T02:35:41.226Z,100670.38
2022-11-14T02:38:27.788Z,100671.03
2022-11-14T02:41:14.720Z,100673.75
2022-11-14T02:44:03.970Z,100680.59
2022-11-14T02:46:50.246Z,100672.81
2022-11-14T02:49:36.474Z,100682.38
2022-11-14T02:52:22.610Z,100687.50
2022-11-14T02:55:09.710Z,100683.16
2022-11-14T02:57:56.004Z,100697.78
2022-11-14T03:01:05.824Z,100695.19
2022-11-14T03:03:48.316Z,100696.16
2022-11-14T03:06:34.661Z,100696.91
2022-11-14T03:09:20.736Z,100702.97
2022-11-14T03:12:10.615Z,100707.31
2022-11-14T03:14:56.737Z,100693.59
2022-11-14T03:17:42.839Z,100701.25
2022-11-14T03:20:32.130Z,100705.69
2022-11-14T03:23:18.776Z,100702.28
2022-11-14T03:26:07.400Z,100706.56
2022-11-14T03:28:55.598Z,100716.91
2022-11-14T03:31:41.920Z,100715.97
2022-11-14T03:34:28.069Z,100721.34
2022-11-14T03:37:14.233Z,100722.16
2022-11-14T03:40:00.406Z,100723.00
2022-11-14T03:42:46.636Z,100723.94
2022-11-14T03:45:32.802Z,100716.22
2022-11-14T03:48:21.524Z,100714.63
2022-11-14T03:51:08.060Z,100726.56
2022-11-14T03:53:54.375Z,100728.41
2022-11-14T03:56:44.043Z,100729.38
2022-11-14T03:59:30.292Z,100723.53
2022-11-14T04:02:16.660Z,100724.38
2022-11-14T04:05:03.027Z,100741.59
2022-11-14T04:07:52.475Z,100733.81
2022-11-14T04:10:38.929Z,100724.38
2022-11-14T04:13:25.254Z,100727.91
2022-11-14T04:16:11.328Z,100737.19
2022-11-14T04:18:57.624Z,100745.91
2022-11-14T04:21:43.919Z,100754.56
2022-11-14T04:24:30.222Z,100753.72
2022-11-14T04:27:16.462Z,100755.41
2022-11-14T04:30:03.133Z,100765.63
2022-11-14T04:32:52.175Z,100765.72
2022-11-14T04:35:38.361Z,100767.47
2022-11-14T04:38:24.591Z,100769.25
2022-11-14T04:41:10.913Z,100781.34
2022-11-14T04:43:56.909Z,100790.75
2022-11-14T04:46:43.019Z,100777.81
2022-11-14T04:49:29.261Z,100768.44
2022-11-14T04:52:15.124Z,100777.97
2022-11-14T04:55:01.475Z,100764.44
2022-11-14T04:57:56.249Z,100792.75
2022-11-14T05:00:42.541Z,100802.00
2022-11-14T05:03:29.709Z,100798.63
2022-11-14T05:06:16.092Z,100797.00
2022-11-14T05:09:02.463Z,100797.97
2022-11-14T05:11:48.592Z,100802.25
2022-11-14T05:14:38.060Z,100816.16
2022-11-14T05:17:24.232Z,100812.00
2022-11-14T05:20:11.107Z,100824.00
2022-11-14T05:22:58.765Z,100817.91
2022-11-14T05:25:44.858Z,100826.56
2022-11-14T05:28:31.505Z,100824.88
2022-11-14T05:31:20.993Z,100839.50
2022-11-14T05:34:07.235Z,100836.00
2022-11-14T05:36:53.533Z,100838.47
2022-11-14T05:39:39.870Z,100854.19
2022-11-14T05:42:28.166Z,100858.81
2022-11-14T05:45:14.325Z,100870.38
2022-11-14T05:48:00.214Z,100864.75
2022-11-14T05:51:18.460Z,100877.03
2022-11-14T05:54:04.913Z,100882.41
2022-11-14T05:56:51.382Z,100884.25
2022-11-14T05:59:37.546Z,100871.56
2022-11-14T06:02:23.990Z,100885.97
2022-11-14T06:05:10.356Z,100886.81
2022-11-14T06:07:59.866Z,100887.72
2022-11-14T06:10:48.575Z,100903.16
2022-11-14T06:13:35.894Z,100889.41
2022-11-14T06:16:25.056Z,100897.09
2022-11-14T06:19:10.999Z,100906.44
2022-11-14T06:21:57.101Z,100913.16
2022-11-14T06:24:43.288Z,100899.34
2022-11-14T06:27:30.997Z,100901.81
2022-11-14T06:30:17.506Z,100912.78
2022-11-14T06:33:06.682Z,100904.91
2022-11-14T06:35:58.515Z,100915.37
2022-11-14T06:38:47.541Z,100919.91
2022-11-14T06:41:33.543Z,100918.41
2022-11-14T06:44:19.724Z,100933.72
2022-11-14T06:47:05.877Z,100937.94
2022-11-14T06:49:52.195Z,100939.47
2022-11-14T06:52:38.401Z,100941.97
2022-11-14T06:55:27.557Z,100941.69
2022-11-14T06:58:13.710Z,100960.59
2022-11-14T07:01:07.343Z,100954.47
2022-11-14T07:03:59.213Z,100954.75
2022-11-14T07:06:45.496Z,100967.59
2022-11-14T07:09:34.370Z,100952.50
2022-11-14T07:12:23.493Z,100960.41
2022-11-14T07:15:10.995Z,100986.25
2022-11-14T07:17:58.606Z,100985.41
2022-11-14T07:20:45.104Z,100993.34
2022-11-14T07:23:33.327Z,100994.34
2022-11-14T07:26:19.664Z,101000.47
2022-11-14T07:29:05.988Z,100997.84
2022-11-14T07:31:52.614Z,100999.50
2022-11-14T07:34:38.722Z,101007.94
2022-11-14T07:37:24.869Z,100999.13
2022-11-14T07:40:11.473Z,101018.84
2022-11-14T07:43:03.710Z,101000.97
2022-11-14T07:45:50.186Z,101013.69
2022-11-14T07:48:36.928Z,101012.78
2022-11-14T07:51:23.033Z,101023.72
2022-11-14T07:54:12.198Z,101022.12
2022-11-14T07:56:58.607Z,101030.63
2022-11-14T07:59:44.790Z,101029.78
2022-11-14T08:02:31.311Z,101022.06
2022-11-14T08:05:17.961Z,101016.56
2022-11-14T08:08:04.484Z,101031.34
2022-11-14T08:10:50.666Z,101027.84
2022-11-14T08:13:36.784Z,101027.72
2022-11-14T08:16:22.872Z,101026.69
2022-11-14T08:19:08.815Z,101019.00
2022-11-14T08:21:57.744Z,101029.19
2022-11-14T08:24:43.805Z,101031.09
2022-11-14T08:27:31.371Z,101040.34
2022-11-14T08:30:18.557Z,101024.06
2022-11-14T08:33:08.960Z,101043.72
2022-11-14T08:36:05.451Z,101048.16
2022-11-14T08:38:52.325Z,101051.41
2022-11-14T08:41:42.861Z,101046.31
2022-11-14T08:44:29.026Z,101035.28
2022-11-14T08:47:16.117Z,101044.56
2022-11-14T08:50:05.903Z,101045.31
2022-11-14T08:52:52.572Z,101041.28
2022-11-14T08:55:44.583Z,101044.38
2022-11-14T08:58:34.136Z,101047.78
2022-11-14T09:01:20.497Z,101049.19
2022-11-14T09:04:06.809Z,101054.53
2022-11-14T09:06:53.072Z,101053.53
2022-11-14T09:09:39.661Z,101057.97
2022-11-14T09:12:26.050Z,101047.19
2022-11-14T09:15:12.120Z,101058.78
2022-11-14T09:17:58.919Z,101070.78
2022-11-14T09:20:45.271Z,101063.91
2022-11-14T09:23:32.417Z,101062.09
2022-11-14T09:26:19.170Z,101055.16
2022-11-14T09:29:06.807Z,101054.34
2022-11-14T09:31:53.657Z,101060.50
2022-11-14T09:34:43.459Z,101051.72
2022-11-14T09:37:33.558Z,101060.44
2022-11-14T09:40:19.638Z,101052.66
2022-11-14T09:43:35.942Z,101063.19
2022-11-14T09:46:48.276Z,101047.84
2022-11-14T09:49:44.009Z,101058.13
2022-11-14T09:53:11.215Z,101049.16
2022-11-14T09:55:58.834Z,101065.81
2022-11-14T09:58:44.983Z,101063.34
2022-11-14T10:01:46.049Z,101050.59
2022-11-14T10:05:03.480Z,101056.53
2022-11-14T10:08:13.818Z,101061.69
2022-11-14T10:11:10.455Z,101058.13
2022-11-14T10:14:13.676Z,101070.06
2022-11-14T10:17:24.372Z,101066.63
2022-11-14T10:20:58.734Z,101058.13
2022-11-14T10:24:03.864Z,101062.53
2022-11-14T10:27:03.175Z,101067.72
2022-11-14T10:29:58.873Z,101060.87
2022-11-14T10:33:20.513Z,101064.25
2022-11-14T10:36:35.141Z,101063.34
2022-11-14T10:39:44.056Z,101069.94
2022-11-14T10:42:44.390Z,101062.31
2022-11-14T10:45:38.576Z,101067.44
2022-11-14T10:48:43.423Z,101057.87
2022-11-14T10:51:44.096Z,101060.03
2022-11-14T10:54:36.291Z,101058.28
2022-11-14T10:57:23.626Z,101059.09
2022-11-14T11:00:14.336Z,101070.25
2022-11-14T11:03:00.607Z,101071.00
2022-11-14T11:05:50.650Z,101056.44
2022-11-14T11:09:01.754Z,101068.41
2022-11-14T11:12:02.906Z,101047.06
2022-11-14T11:15:08.317Z,101065.94
2022-11-14T11:18:18.470Z,101063.31
2022-11-14T11:21:16.762Z,101064.19
2022-11-14T11:24:03.357Z,101055.75
2022-11-14T11:26:49.518Z,101057.41
2022-11-14T11:29:38.949Z,101058.25
2022-11-14T11:32:28.202Z,101059.12
2022-11-14T11:35:17.235Z,101064.28
2022-11-14T11:38:05.575Z,101063.44
2022-11-14T11:40:54.778Z,101070.34
2022-11-14T11:43:46.722Z,101065.00
2022-11-14T11:46:40.159Z,101064.16
2022-11-14T11:49:53.339Z,101062.28
2022-11-14T11:53:06.756Z,101062.38
2022-11-14T11:55:59.942Z,101080.13
2022-11-14T11:58:51.310Z,101078.56
2022-11-14T12:01:37.572Z,101072.56
2022-11-14T12:04:26.790Z,101070.78
2022-11-14T12:07:18.075Z,101071.53
2022-11-14T12:10:15.689Z,101065.38
2022-11-14T12:13:46.841Z,101067.72
2022-11-14T12:16:48.258Z,101075.72
2022-11-14T12:20:04.967Z,101066.00
2022-11-14T12:23:12.707Z,101072.72
2022-11-14T12:26:28.877Z,101071.97
2022-11-14T12:29:41.360Z,101064.91
2022-11-14T12:32:37.632Z,101067.19
2022-11-14T12:35:31.018Z,101063.50
2022-11-14T12:38:19.888Z,101069.69
2022-11-14T12:41:10.177Z,101078.31
2022-11-14T12:44:27.955Z,101075.00
2022-11-14T12:47:20.461Z,101074.91
2022-11-14T12:50:40.589Z,101069.88
2022-11-14T12:53:38.317Z,101057.87
2022-11-14T12:56:30.953Z,101078.88
2022-11-14T12:59:19.998Z,101071.50
2022-11-14T13:02:23.273Z,101078.53
2022-11-14T13:05:33.899Z,101072.25
2022-11-14T13:08:50.950Z,101077.81
2022-11-14T13:12:07.176Z,101078.13
2022-11-14T13:15:14.903Z,101078.56
2022-11-14T13:18:46.060Z,101078.81
2022-11-14T13:21:47.700Z,101077.28
2022-11-14T13:25:01.905Z,101069.75
2022-11-14T13:31:18.063Z,101086.22
2022-11-14T13:34:43.099Z,101083.75
2022-11-14T13:37:47.492Z,101091.37
2022-11-14T13:41:00.134Z,101085.56
2022-11-14T13:44:10.220Z,101084.72
2022-11-14T13:47:08.972Z,101086.56
2022-11-14T13:50:03.000Z,101079.72
2022-11-14T13:52:49.896Z,101080.69
2022-11-14T13:56:05.139Z,101078.88
2022-11-14T13:59:02.568Z,101085.00
2022-11-14T14:02:12.730Z,101094.50
2022-11-14T14:05:12.445Z,101091.19
2022-11-14T14:08:18.485Z,101095.44
2022-11-14T14:14:56.810Z,101096.44
2022-11-14T14:17:43.369Z,101094.69
2022-11-14T14:20:37.297Z,101104.03
2022-11-14T14:23:50.323Z,101097.19
2022-11-14T14:26:57.400Z,101093.72
2022-11-14T14:29:46.225Z,101097.00
2022-11-14T14:32:33.711Z,101097.72
2022-11-14T14:35:29.479Z,101101.91
2022-11-14T14:38:28.209Z,101106.06
2022-11-14T14:41:18.361Z,101062.34
2022-11-14T14:44:04.607Z,101100.72
2022-11-14T14:46:51.989Z,101096.38
2022-11-14T14:49:39.575Z,101098.75
2022-11-14T14:52:39.239Z,101093.69
2022-11-14T14:55:28.764Z,101104.78
2022-11-14T14:58:19.665Z,101098.69
2022-11-14T15:01:29.483Z,101098.75
2022-11-14T15:04:18.013Z,101101.22
2022-11-14T15:07:04.723Z,101097.84
2022-11-14T15:09:58.622Z,101091.72
2022-11-14T15:12:45.253Z,101096.88
2022-11-14T15:15:32.367Z,101094.28
2022-11-14T15:18:31.182Z,101094.28
2022-11-14T15:21:30.351Z,101087.38
2022-11-14T15:24:19.788Z,101086.41
2022-11-14T15:27:19.017Z,101084.72
2022-11-14T15:30:20.663Z,101078.81
2022-11-14T15:33:26.067Z,101081.37
2022-11-14T15:36:20.032Z,101082.25
2022-11-14T15:39:31.436Z,101082.16
2022-11-14T15:42:29.595Z,101078.81
2022-11-14T15:45:22.916Z,101075.34
2022-11-14T15:48:19.471Z,101075.34
2022-11-14T15:51:05.667Z,101081.31
2022-11-14T15:53:53.726Z,101082.22
2022-11-14T15:56:40.571Z,101078.75
2022-11-14T15:59:31.284Z,101072.72
2022-11-14T16:02:26.241Z,101066.41
2022-11-14T16:05:14.686Z,101070.00
2022-11-14T16:08:01.085Z,101070.00
2022-11-14T16:10:47.301Z,101073.41
2022-11-14T16:13:33.973Z,101065.78
2022-11-14T16:16:20.766Z,101074.31
2022-11-14T16:19:07.648Z,101061.50
2022-11-14T16:21:54.160Z,101069.09
2022-11-14T16:24:40.430Z,101070.91
2022-11-14T16:27:26.936Z,101069.91
2022-11-14T16:30:14.500Z,101069.16
2022-11-14T16:33:00.991Z,101069.09
2022-11-14T16:35:47.537Z,101061.34
2022-11-14T16:38:33.805Z,101065.59
2022-11-14T16:41:20.347Z,101062.06
2022-11-14T16:44:10.667Z,101061.34
2022-11-14T16:46:57.136Z,101054.41
2022-11-14T16:49:43.724Z,101061.34
2022-11-14T16:52:31.359Z,101059.59
2022-11-14T16:55:18.277Z,101051.84
2022-11-14T16:58:05.130Z,101054.34
2022-11-14T17:00:51.685Z,101037.19
2022-11-14T17:03:38.023Z,101034.53
2022-11-14T17:06:26.992Z,101051.78
2022-11-14T17:09:15.089Z,101054.34
2022-11-14T17:12:02.054Z,101050.94
2022-11-14T17:14:49.000Z,101054.28
2022-11-14T17:17:36.175Z,101036.25
2022-11-14T17:20:22.897Z,101043.09
2022-11-14T17:23:09.595Z,101038.88
2022-11-14T17:26:07.232Z,101040.63
2022-11-14T17:28:54.581Z,101049.09
2022-11-14T17:31:46.708Z,101050.06
2022-11-14T17:34:33.741Z,101046.59
2022-11-14T17:37:22.119Z,101044.00
2022-11-14T17:40:15.168Z,101047.41
2022-11-14T17:43:03.286Z,101049.09
2022-11-14T17:46:00.003Z,101045.69
2022-11-14T17:48:47.391Z,101044.75
2022-11-14T17:51:33.751Z,101037.09
2022-11-14T17:54:20.417Z,101032.75
2022-11-14T17:57:07.664Z,101038.78
2022-11-14T17:59:54.214Z,101042.16
2022-11-14T18:02:40.981Z,101039.56
2022-11-14T18:05:30.772Z,101036.09
2022-11-14T18:08:17.783Z,101031.03
2022-11-14T18:11:07.178Z,101043.81
2022-11-14T18:13:56.463Z,101040.41
2022-11-14T18:17:11.141Z,101039.59
2022-11-14T18:19:51.814Z,101043.09
2022-11-14T18:22:38.956Z,101044.72
2022-11-14T18:25:29.737Z,101043.09
2022-11-14T18:28:16.838Z,101044.75
2022-11-14T18:31:05.069Z,101041.41
2022-11-14T18:33:52.488Z,101052.50
2022-11-14T18:36:40.353Z,101061.09
2022-11-14T18:39:29.471Z,101054.09
2022-11-14T18:42:16.546Z,101045.69
2022-11-14T18:45:05.778Z,101050.84
2022-11-14T18:47:56.557Z,101049.94
2022-11-14T18:50:43.469Z,101055.91
2022-11-14T18:53:43.168Z,101034.63
2022-11-14T18:56:30.674Z,101053.41
2022-11-14T18:59:20.459Z,101056.91
2022-11-14T19:02:07.670Z,101046.56
2022-11-14T19:04:55.029Z,101047.28
2022-11-14T19:07:42.845Z,101044.69
2022-11-14T19:10:29.296Z,101039.59
2022-11-14T19:13:15.742Z,101043.03
2022-11-14T19:16:06.477Z,101042.25
2022-11-14T19:18:55.772Z,101037.25
2022-11-14T19:21:43.996Z,101032.94
2022-11-14T19:24:30.582Z,101033.84
2022-11-14T19:27:16.779Z,101039.78
2022-11-14T19:30:02.971Z,101039.00
2022-11-14T19:32:49.444Z,101033.78
2022-11-14T19:35:39.701Z,101036.34
2022-11-14T19:38:26.247Z,101035.44
2022-11-14T19:41:21.309Z,101021.59
2022-11-14T19:44:07.803Z,101022.50
2022-11-14T19:46:55.646Z,101025.12
2022-11-14T19:49:43.279Z,101022.72
2022-11-14T19:52:31.093Z,101016.69
2022-11-14T19:55:18.139Z,101027.78
2022-11-14T19:58:07.591Z,101018.38
2022-11-14T20:00:53.619Z,101028.94
2022-11-14T20:03:40.470Z,101020.44
2022-11-14T20:06:34.876Z,101028.19
2022-11-14T20:09:24.875Z,101031.66
2022-11-14T20:12:10.892Z,101026.53
2022-11-14T20:14:57.211Z,101021.28
2022-11-14T20:17:43.127Z,101010.34
2022-11-14T20:20:29.516Z,101023.16
2022-11-14T20:23:16.100Z,101018.00
2022-11-14T20:26:05.944Z,101015.50
2022-11-14T20:28:56.152Z,101015.56
2022-11-14T20:31:42.256Z,101010.44
2022-11-14T20:34:28.398Z,101022.47
2022-11-14T20:37:14.448Z,101022.66
2022-11-14T20:40:00.574Z,101017.53
2022-11-14T20:42:50.275Z,101021.81
2022-11-14T20:45:36.474Z,101020.19
2022-11-14T20:48:22.900Z,101020.25
2022-11-14T20:51:13.233Z,101015.88
2022-11-14T20:54:02.502Z,101021.09
2022-11-14T20:56:49.314Z,101019.44
2022-11-14T20:59:35.498Z,101015.94
2022-11-14T21:02:21.933Z,101027.94
2022-11-14T21:05:08.720Z,101027.94
2022-11-14T21:07:57.832Z,101032.19
2022-11-14T21:10:50.559Z,101023.56
2022-11-14T21:13:57.688Z,101025.34
2022-11-14T21:16:44.089Z,101023.59
2022-11-14T21:19:36.552Z,101026.38
2022-11-14T21:22:23.252Z,101021.34
2022-11-14T21:25:09.779Z,101019.78
2022-11-14T21:27:56.659Z,101020.75
2022-11-14T21:30:43.522Z,101019.22
2022-11-14T21:33:31.944Z,101026.19
2022-11-14T21:39:26.085Z,101024.66
2022-11-14T21:42:18.080Z,101017.66
2022-11-14T21:45:07.039Z,101019.13
2022-11-14T21:47:53.464Z,101019.22
2022-11-14T21:50:39.555Z,101020.25
2022-11-14T21:53:27.652Z,101010.66
2022-11-14T21:56:15.680Z,101021.88
2022-11-14T21:59:16.864Z,101027.94
2022-11-14T22:02:22.544Z,101033.81
2022-11-14T22:05:08.967Z,101027.03
2022-11-14T22:07:55.628Z,101018.97
2022-11-14T22:10:45.300Z,101016.44
2022-11-14T22:13:32.138Z,101016.78
2022-11-14T22:16:34.414Z,101011.59
2022-11-14T22:19:20.978Z,101002.22
2022-11-14T22:22:07.198Z,101002.19
2022-11-14T22:24:53.692Z,101004.88
2022-11-14T22:27:39.884Z,101005.97
2022-11-14T22:30:26.059Z,101001.72
2022-11-14T22:33:12.191Z,100997.56
2022-11-14T22:36:06.800Z,100994.09
2022-11-14T22:38:55.046Z,101000.91
2022-11-14T22:41:41.330Z,100995.72
2022-11-14T22:44:27.436Z,100988.75
2022-11-14T22:47:16.539Z,101000.03
2022-11-14T22:50:06.176Z,100999.06
2022-11-14T22:52:55.395Z,100990.47
2022-11-14T22:55:48.915Z,100990.38
2022-11-14T22:58:40.448Z,100993.09
2022-11-14T23:01:29.202Z,100999.91
2022-11-14T23:04:15.388Z,100988.09
2022-11-14T23:07:02.010Z,100996.72
2022-11-14T23:09:51.398Z,100990.75
2022-11-14T23:12:37.741Z,100984.72
2022-11-14T23:15:24.078Z,100982.91
2022-11-14T23:18:10.493Z,100986.37
2022-11-14T23:21:21.015Z,100981.28
2022-11-14T23:24:11.958Z,100984.00
2022-11-14T23:27:01.115Z,100975.47
2022-11-14T23:29:47.583Z,100983.19
2022-11-14T23:32:33.548Z,100969.53
2022-11-14T23:35:19.638Z,100985.78
2022-11-14T23:38:23.948Z,100988.38
2022-11-14T23:41:20.902Z,100986.69
2022-11-14T23:44:10.458Z,100976.44
2022-11-14T23:46:56.886Z,100970.44
2022-11-14T23:49:43.480Z,100980.69
2022-11-14T23:52:33.792Z,100970.44
2022-11-14T23:55:19.959Z,100971.28
2022-11-14T23:58:22.077Z,100968.72
